createdAt,value
2023-06-18T00:01:49.837Z,67.00
2023-06-18T00:04:19.889Z,73.03
2023-06-18T00:06:51.261Z,68.43
2023-06-18T00:09:21.372Z,64.37
2023-06-18T00:11:51.897Z,63.23
2023-06-18T00:14:21.878Z,64.97
2023-06-18T00:16:53.316Z,68.90
2023-06-18T00:19:23.766Z,58.93
2023-06-18T00:21:55.275Z,61.60
2023-06-18T00:24:25.613Z,68.33
2023-06-18T00:26:55.813Z,65.07
2023-06-18T00:29:26.193Z,75.43
2023-06-18T00:31:56.180Z,71.87
2023-06-18T00:34:29.636Z,72.60
2023-06-18T00:37:01.436Z,71.93
2023-06-18T00:39:31.775Z,71.50
2023-06-18T00:42:01.708Z,71.07
2023-06-18T00:44:31.874Z,66.07
2023-06-18T00:47:02.338Z,74.67
2023-06-18T00:49:32.507Z,59.13
2023-06-18T00:52:04.765Z,62.17
2023-06-18T00:54:37.665Z,59.53
2023-06-18T00:57:09.439Z,60.67
2023-06-18T00:59:39.593Z,62.27
2023-06-18T01:02:12.751Z,73.07
2023-06-18T01:04:43.081Z,69.50
2023-06-18T01:07:17.385Z,65.47
2023-06-18T01:09:58.288Z,77.23
2023-06-18T01:12:32.029Z,76.40
2023-06-18T01:15:02.429Z,73.83
2023-06-18T01:17:35.499Z,74.47
2023-06-18T01:20:11.543Z,72.73
2023-06-18T01:22:48.835Z,60.10
2023-06-18T01:25:20.595Z,56.50
2023-06-18T01:27:51.463Z,60.80
2023-06-18T01:30:23.054Z,61.77
2023-06-18T01:32:55.612Z,66.10
2023-06-18T01:35:26.578Z,66.03
2023-06-18T01:38:16.996Z,70.73
2023-06-18T01:40:50.276Z,64.47
2023-06-18T01:43:26.014Z,74.27
2023-06-18T01:45:59.995Z,68.17
2023-06-18T01:48:36.172Z,68.53
2023-06-18T01:51:07.629Z,60.17
2023-06-18T01:53:40.173Z,58.70
2023-06-18T01:56:11.007Z,63.80
2023-06-18T01:58:43.964Z,63.97
2023-06-18T02:01:17.688Z,65.13
2023-06-18T02:03:51.082Z,67.83
2023-06-18T02:06:21.546Z,62.90
2023-06-18T02:08:52.954Z,59.77
2023-06-18T02:11:27.098Z,58.60
2023-06-18T02:13:57.091Z,62.17
2023-06-18T02:16:27.276Z,56.90
2023-06-18T02:18:57.310Z,61.53
2023-06-18T02:21:27.750Z,57.13
2023-06-18T02:23:59.171Z,62.30
2023-06-18T02:26:29.164Z,62.67
2023-06-18T02:28:59.140Z,59.67
2023-06-18T02:31:29.038Z,55.73
2023-06-18T02:33:58.996Z,61.87
2023-06-18T02:36:30.280Z,62.47
2023-06-18T02:39:01.911Z,65.90
2023-06-18T02:41:31.978Z,59.13
2023-06-18T02:44:01.968Z,58.47
2023-06-18T02:46:32.337Z,61.37
2023-06-18T02:49:02.719Z,57.40
2023-06-18T02:51:32.979Z,63.47
2023-06-18T02:54:05.310Z,65.17
2023-06-18T02:56:35.702Z,63.63
2023-06-18T02:59:05.782Z,65.23
2023-06-18T03:01:37.512Z,55.73
2023-06-18T03:04:08.704Z,55.47
2023-06-18T03:06:39.231Z,59.97
2023-06-18T03:09:10.467Z,58.83
2023-06-18T03:11:42.397Z,54.57
2023-06-18T03:14:13.667Z,52.97
2023-06-18T03:16:43.677Z,56.40
2023-06-18T03:19:14.276Z,64.03
2023-06-18T03:21:45.525Z,58.40
2023-06-18T03:24:16.869Z,60.30
2023-06-18T03:26:47.273Z,61.50
2023-06-18T03:29:20.322Z,58.80
2023-06-18T03:31:51.072Z,57.83
2023-06-18T03:34:22.637Z,56.80
2023-06-18T03:36:54.285Z,75.70
2023-06-18T03:39:27.569Z,63.10
2023-06-18T03:41:58.226Z,58.93
2023-06-18T03:44:28.614Z,59.67
2023-06-18T03:46:58.592Z,55.77
2023-06-18T03:49:28.700Z,59.57
2023-06-18T03:51:58.620Z,57.00
2023-06-18T03:54:29.807Z,72.10
2023-06-18T03:57:02.903Z,59.23
2023-06-18T03:59:34.247Z,58.47
2023-06-18T04:02:06.207Z,67.23
2023-06-18T04:04:36.205Z,57.93
2023-06-18T04:07:06.632Z,55.67
2023-06-18T04:09:37.817Z,55.07
2023-06-18T04:12:08.755Z,60.83
2023-06-18T04:14:38.617Z,58.17
2023-06-18T04:17:09.413Z,60.10
2023-06-18T04:19:39.718Z,56.50
2023-06-18T04:22:09.862Z,55.97
2023-06-18T04:24:43.685Z,62.80
2023-06-18T04:27:14.658Z,59.03
2023-06-18T04:29:45.457Z,59.93
2023-06-18T04:32:15.968Z,60.10
2023-06-18T04:34:45.969Z,55.00
2023-06-18T04:37:16.098Z,60.97
2023-06-18T04:39:48.481Z,58.00
2023-06-18T04:42:18.511Z,56.70
2023-06-18T04:44:48.725Z,59.90
2023-06-18T04:47:19.273Z,66.03
2023-06-18T04:49:49.116Z,60.23
2023-06-18T04:52:19.427Z,56.97
2023-06-18T04:54:53.867Z,58.73
2023-06-18T04:57:25.690Z,62.13
2023-06-18T04:59:55.631Z,59.40
2023-06-18T05:02:25.928Z,59.17
2023-06-18T05:04:56.432Z,62.30
2023-06-18T05:07:28.162Z,57.70
2023-06-18T05:09:59.584Z,60.27
2023-06-18T05:12:29.669Z,53.70
2023-06-18T05:14:59.477Z,56.57
2023-06-18T05:17:29.764Z,53.80
2023-06-18T05:20:02.465Z,57.43
2023-06-18T05:22:34.355Z,58.60
2023-06-18T05:25:06.264Z,66.00
2023-06-18T05:27:37.696Z,53.20
2023-06-18T05:30:09.423Z,55.73
2023-06-18T05:32:39.369Z,53.27
2023-06-18T05:35:13.226Z,51.87
2023-06-18T05:37:50.358Z,53.20
2023-06-18T05:40:22.208Z,55.90
2023-06-18T05:42:53.181Z,50.57
2023-06-18T05:45:23.162Z,50.03
2023-06-18T05:47:53.470Z,57.03
2023-06-18T05:50:36.712Z,51.37
2023-06-18T05:53:06.507Z,49.60
2023-06-18T05:55:37.781Z,52.70
2023-06-18T05:58:08.129Z,48.03
2023-06-18T06:00:38.182Z,47.97
2023-06-18T06:03:08.061Z,47.53
2023-06-18T06:05:38.062Z,46.53
2023-06-18T06:08:12.952Z,51.90
2023-06-18T06:10:46.012Z,48.90
2023-06-18T06:13:15.978Z,51.03
2023-06-18T06:15:47.066Z,49.57
2023-06-18T06:18:17.162Z,52.10
2023-06-18T06:20:47.250Z,49.00
2023-06-18T06:23:17.349Z,57.23
2023-06-18T06:25:48.779Z,46.10
2023-06-18T06:28:19.375Z,47.03
2023-06-18T06:30:49.209Z,47.23
2023-06-18T06:33:19.078Z,56.33
2023-06-18T06:35:49.047Z,49.40
2023-06-18T06:38:20.340Z,46.77
2023-06-18T06:40:53.128Z,54.23
2023-06-18T06:43:23.004Z,48.37
2023-06-18T06:46:11.467Z,46.70
2023-06-18T06:48:47.960Z,47.23
2023-06-18T06:51:40.852Z,47.20
2023-06-18T06:54:14.903Z,57.53
2023-06-18T06:56:46.287Z,44.77
2023-06-18T06:59:16.381Z,46.77
2023-06-18T07:01:46.685Z,47.40
2023-06-18T07:04:17.568Z,46.60
2023-06-18T07:06:48.131Z,47.00
2023-06-18T07:09:17.980Z,46.70
2023-06-18T07:11:49.174Z,46.77
2023-06-18T07:14:19.054Z,47.70
2023-06-18T07:16:49.194Z,58.60
2023-06-18T07:19:19.070Z,43.13
2023-06-18T07:21:48.992Z,45.83
2023-06-18T07:24:19.197Z,44.77
2023-06-18T07:26:50.927Z,47.93
2023-06-18T07:29:20.887Z,46.30
2023-06-18T07:31:50.822Z,48.07
2023-06-18T07:34:20.722Z,46.80
2023-06-18T07:36:51.060Z,44.67
2023-06-18T07:39:22.403Z,49.00
2023-06-18T07:41:54.038Z,45.10
2023-06-18T07:44:23.979Z,45.90
2023-06-18T07:46:53.823Z,49.73
2023-06-18T07:49:23.727Z,45.60
2023-06-18T07:51:55.276Z,45.27
2023-06-18T07:54:25.123Z,54.47
2023-06-18T07:56:56.351Z,52.70
2023-06-18T07:59:26.333Z,44.50
2023-06-18T08:01:56.231Z,45.37
2023-06-18T08:04:26.170Z,49.00
2023-06-18T08:06:55.992Z,45.63
2023-06-18T08:09:25.806Z,43.97
2023-06-18T08:11:59.889Z,45.57
2023-06-18T08:14:30.077Z,51.63
2023-06-18T08:16:59.926Z,51.33
2023-06-18T08:19:30.031Z,46.97
2023-06-18T08:21:59.824Z,43.77
2023-06-18T08:24:29.669Z,45.10
2023-06-18T08:27:00.859Z,53.20
2023-06-18T08:29:31.062Z,56.13
2023-06-18T08:32:05.739Z,45.87
2023-06-18T08:34:37.963Z,44.47
2023-06-18T08:37:07.920Z,47.17
2023-06-18T08:39:38.190Z,55.13
2023-06-18T08:42:10.252Z,47.87
2023-06-18T08:44:40.081Z,46.93
2023-06-18T08:47:10.343Z,46.33
2023-06-18T08:49:43.346Z,45.20
2023-06-18T08:52:16.959Z,48.23
2023-06-18T08:54:51.069Z,46.73
2023-06-18T08:57:33.197Z,47.47
2023-06-18T09:00:05.072Z,49.43
2023-06-18T09:02:35.134Z,46.33
2023-06-18T09:05:06.679Z,49.23
2023-06-18T09:07:37.661Z,48.87
2023-06-18T09:10:09.841Z,47.67
2023-06-18T09:12:41.729Z,57.20
2023-06-18T09:15:12.283Z,49.87
2023-06-18T09:17:50.133Z,52.63
2023-06-18T09:20:21.729Z,55.57
2023-06-18T09:22:52.098Z,56.87
2023-06-18T09:25:22.865Z,57.57
2023-06-18T09:27:57.970Z,50.97
2023-06-18T09:30:27.783Z,50.97
2023-06-18T09:33:01.045Z,56.33
2023-06-18T09:35:32.807Z,57.97
2023-06-18T09:38:10.029Z,56.00
2023-06-18T09:40:42.822Z,54.47
2023-06-18T09:43:14.627Z,63.70
2023-06-18T09:45:44.402Z,55.87
2023-06-18T09:48:14.365Z,60.40
2023-06-18T09:50:47.649Z,86.40
2023-06-18T09:53:18.959Z,87.77
2023-06-18T09:55:49.869Z,137.47
2023-06-18T09:58:21.359Z,140.83
2023-06-18T10:01:04.323Z,127.77
2023-06-18T10:03:34.729Z,123.90
2023-06-18T10:06:17.322Z,148.50
2023-06-18T10:08:48.474Z,322.43
2023-06-18T10:11:19.723Z,303.33
2023-06-18T10:13:56.869Z,705.53
2023-06-18T10:16:29.815Z,280.93
2023-06-18T10:19:04.405Z,831.70
2023-06-18T10:21:38.153Z,2266.67
2023-06-18T10:24:14.812Z,2266.67
2023-06-18T10:26:44.848Z,2266.67
2023-06-18T10:29:16.936Z,2266.67
2023-06-18T10:31:48.155Z,740.20
2023-06-18T10:34:19.223Z,1436.67
2023-06-18T10:36:49.672Z,2266.67
2023-06-18T10:39:24.929Z,2266.67
2023-06-18T10:41:55.779Z,2266.67
2023-06-18T10:44:51.483Z,2266.67
2023-06-18T10:47:24.017Z,2266.67
2023-06-18T10:50:22.113Z,2266.67
2023-06-18T10:52:53.735Z,2266.67
2023-06-18T10:55:32.281Z,2266.67
2023-06-18T10:58:03.990Z,2266.67
2023-06-18T11:00:37.708Z,2266.67
2023-06-18T11:03:13.180Z,2266.67
2023-06-18T11:05:48.868Z,2266.67
2023-06-18T11:08:27.556Z,2266.67
2023-06-18T11:11:03.988Z,1479.73
2023-06-18T11:13:37.549Z,2266.67
2023-06-18T11:16:18.189Z,2266.67
2023-06-18T11:18:48.288Z,2266.67
2023-06-18T11:21:19.568Z,2266.67
2023-06-18T11:23:50.644Z,2266.67
2023-06-18T11:26:21.549Z,2266.67
2023-06-18T11:28:52.862Z,2266.67
2023-06-18T11:31:31.521Z,2266.67
2023-06-18T11:34:05.690Z,2266.67
2023-06-18T11:36:40.746Z,2266.67
2023-06-18T11:39:10.522Z,2266.67
2023-06-18T11:41:40.645Z,2266.67
2023-06-18T11:44:10.813Z,2266.67
2023-06-18T11:46:42.412Z,2266.67
2023-06-18T11:49:15.100Z,2266.67
2023-06-18T11:51:45.032Z,2266.67
2023-06-18T11:54:14.920Z,2266.67
2023-06-18T11:56:54.041Z,2266.67
2023-06-18T11:59:23.850Z,2266.67
2023-06-18T12:01:55.069Z,2266.67
2023-06-18T12:04:24.887Z,2266.67
2023-06-18T12:06:56.813Z,2266.67
2023-06-18T12:09:26.547Z,2266.67
2023-06-18T12:12:09.229Z,2266.67
2023-06-18T12:14:43.948Z,2266.67
2023-06-18T12:17:23.449Z,2266.67
2023-06-18T12:20:00.689Z,2266.67
2023-06-18T12:22:30.983Z,2266.67
2023-06-18T12:25:01.479Z,2266.67
2023-06-18T12:27:32.065Z,2266.67
2023-06-18T12:30:03.360Z,2266.67
2023-06-18T12:32:35.238Z,2266.67
2023-06-18T12:35:12.852Z,2266.67
2023-06-18T12:37:43.911Z,2266.67
2023-06-18T12:40:20.353Z,2266.67
2023-06-18T12:42:50.769Z,2266.67
2023-06-18T12:45:25.705Z,2266.67
2023-06-18T12:47:58.093Z,2266.67
2023-06-18T12:50:46.363Z,2266.67
2023-06-18T12:53:18.599Z,2266.67
2023-06-18T12:55:49.764Z,2266.67
2023-06-18T12:58:22.670Z,2266.67
2023-06-18T13:00:54.275Z,2266.67
2023-06-18T13:03:27.777Z,2266.67
2023-06-18T13:05:58.816Z,2266.67
2023-06-18T13:08:28.903Z,2266.67
2023-06-18T13:10:58.941Z,2266.67
2023-06-18T13:13:28.915Z,2266.67
2023-06-18T13:15:59.489Z,2266.67
2023-06-18T13:18:30.968Z,2266.67
2023-06-18T13:21:03.576Z,2266.67
2023-06-18T13:23:33.757Z,2266.67
2023-06-18T13:26:03.563Z,2266.67
2023-06-18T13:28:33.339Z,2266.67
2023-06-18T13:31:03.147Z,2266.67
2023-06-18T13:33:34.352Z,2266.67
2023-06-18T13:36:04.423Z,2266.67
2023-06-18T13:38:34.950Z,2266.67
2023-06-18T13:41:04.820Z,2266.67
2023-06-18T13:43:35.407Z,2266.67
2023-06-18T13:46:05.453Z,2266.67
2023-06-18T13:48:37.337Z,2266.67
2023-06-18T13:51:07.317Z,2266.67
2023-06-18T13:53:37.418Z,2266.67
2023-06-18T13:56:07.464Z,2266.67
2023-06-18T13:58:37.234Z,2266.67
2023-06-18T14:01:07.028Z,2266.67
2023-06-18T14:03:38.300Z,2266.67
2023-06-18T14:06:08.335Z,2266.67
2023-06-18T14:08:42.672Z,2266.67
2023-06-18T14:11:12.833Z,2266.67
2023-06-18T14:13:42.662Z,2266.67
2023-06-18T14:16:13.350Z,2266.67
2023-06-18T14:18:44.706Z,2266.67
2023-06-18T14:21:15.049Z,2266.67
2023-06-18T14:23:45.571Z,2266.67
2023-06-18T14:26:15.459Z,2266.67
2023-06-18T14:28:45.447Z,2266.67
2023-06-18T14:31:15.819Z,2266.67
2023-06-18T14:33:59.280Z,2266.67
2023-06-18T14:36:39.295Z,2266.67
2023-06-18T14:39:09.913Z,2266.67
2023-06-18T14:41:40.148Z,2266.67
2023-06-18T14:44:09.914Z,2266.67
2023-06-18T14:46:39.733Z,2266.67
2023-06-18T14:49:10.916Z,2266.67
2023-06-18T14:51:40.888Z,2266.67
2023-06-18T14:54:13.800Z,2266.67
2023-06-18T14:56:46.028Z,2266.67
2023-06-18T14:59:15.845Z,2266.67
2023-06-18T15:01:46.138Z,2266.67
2023-06-18T15:04:17.516Z,2266.67
2023-06-18T15:06:49.627Z,2266.67
2023-06-18T15:09:19.516Z,2266.67
2023-06-18T15:11:49.405Z,2266.67
2023-06-18T15:14:19.474Z,2266.67
2023-06-18T15:16:49.342Z,2266.67
2023-06-18T15:19:20.514Z,2266.67
2023-06-18T15:21:50.472Z,2266.67
2023-06-18T15:24:20.447Z,2266.67
2023-06-18T15:26:50.241Z,2266.67
2023-06-18T15:29:20.069Z,2266.67
2023-06-18T15:31:49.962Z,1897.00
2023-06-18T15:34:22.194Z,2266.67
2023-06-18T15:36:52.141Z,1746.17
2023-06-18T15:39:23.005Z,2072.20
2023-06-18T15:41:53.039Z,1516.03
2023-06-18T15:44:23.113Z,2266.67
2023-06-18T15:46:53.083Z,2266.67
2023-06-18T15:49:24.413Z,2200.00
2023-06-18T15:51:54.205Z,2205.07
2023-06-18T15:54:23.998Z,2266.67
2023-06-18T15:56:53.763Z,2266.67
2023-06-18T15:59:24.539Z,2266.67
2023-06-18T16:01:54.450Z,2266.67
2023-06-18T16:04:25.936Z,2266.67
2023-06-18T16:06:56.047Z,2266.67
2023-06-18T16:09:25.933Z,2266.67
2023-06-18T16:11:55.941Z,2266.67
2023-06-18T16:14:25.925Z,2266.67
2023-06-18T16:16:55.856Z,2266.67
2023-06-18T16:19:27.041Z,2266.67
2023-06-18T16:21:56.917Z,1305.63
2023-06-18T16:24:28.791Z,521.43
2023-06-18T16:27:00.937Z,571.03
2023-06-18T16:29:30.937Z,1382.47
2023-06-18T16:32:00.732Z,728.93
2023-06-18T16:34:32.404Z,1200.07
2023-06-18T16:37:02.328Z,1850.83
2023-06-18T16:39:32.398Z,2266.67
2023-06-18T16:42:02.220Z,2266.67
2023-06-18T16:44:32.050Z,1541.27
2023-06-18T16:47:02.048Z,784.63
2023-06-18T16:49:33.285Z,109.50
2023-06-18T16:52:03.216Z,116.00
2023-06-18T16:54:33.493Z,186.20
2023-06-18T16:57:03.396Z,187.80
2023-06-18T16:59:33.721Z,149.30
2023-06-18T17:02:03.703Z,147.43
2023-06-18T17:04:35.278Z,205.27
2023-06-18T17:07:06.200Z,172.47
2023-06-18T17:09:37.250Z,300.07
2023-06-18T17:12:08.125Z,276.00
2023-06-18T17:14:38.051Z,187.67
2023-06-18T17:17:08.182Z,251.73
2023-06-18T17:19:39.483Z,287.03
2023-06-18T17:22:10.012Z,117.07
2023-06-18T17:24:40.356Z,123.57
2023-06-18T17:27:11.111Z,118.60
2023-06-18T17:29:42.766Z,98.03
2023-06-18T17:32:12.566Z,242.10
2023-06-18T17:34:43.672Z,270.17
2023-06-18T17:37:13.524Z,179.07
2023-06-18T17:39:43.397Z,107.30
2023-06-18T17:42:13.660Z,71.53
2023-06-18T17:44:43.916Z,67.30
2023-06-18T17:47:13.802Z,60.97
2023-06-18T17:49:48.658Z,61.20
2023-06-18T17:52:20.185Z,56.93
2023-06-18T17:54:50.028Z,56.50
2023-06-18T17:57:19.839Z,53.80
2023-06-18T17:59:49.778Z,55.97
2023-06-18T18:02:19.707Z,51.27
2023-06-18T18:04:51.283Z,53.20
2023-06-18T18:07:21.703Z,50.77
2023-06-18T18:09:51.586Z,52.10
2023-06-18T18:12:21.399Z,48.83
2023-06-18T18:14:51.205Z,48.70
2023-06-18T18:17:21.133Z,54.43
2023-06-18T18:19:53.943Z,54.43
2023-06-18T18:22:23.903Z,52.60
2023-06-18T18:24:53.841Z,51.00
2023-06-18T18:27:23.618Z,47.40
2023-06-18T18:29:53.457Z,48.57
2023-06-18T18:32:23.303Z,53.27
2023-06-18T18:34:54.441Z,53.53
2023-06-18T18:37:24.254Z,47.47
2023-06-18T18:39:54.472Z,50.67
2023-06-18T18:42:24.654Z,49.93
2023-06-18T18:44:54.594Z,61.97
2023-06-18T18:47:24.643Z,57.63
2023-06-18T18:49:56.225Z,47.10
2023-06-18T18:52:28.352Z,49.77
2023-06-18T18:54:58.168Z,51.53
2023-06-18T18:57:27.945Z,48.47
2023-06-18T18:59:57.729Z,49.97
2023-06-18T19:02:28.196Z,49.43
2023-06-18T19:04:59.332Z,50.10
2023-06-18T19:07:29.347Z,53.73
2023-06-18T19:09:59.206Z,52.33
2023-06-18T19:12:29.356Z,55.83
2023-06-18T19:14:59.120Z,51.40
2023-06-18T19:17:29.029Z,53.83
2023-06-18T19:20:00.207Z,58.83
2023-06-18T19:22:33.008Z,49.50
2023-06-18T19:25:03.054Z,56.83
2023-06-18T19:27:33.067Z,52.53
2023-06-18T19:30:03.178Z,58.13
2023-06-18T19:32:33.080Z,61.30
2023-06-18T19:35:04.717Z,61.20
2023-06-18T19:37:34.488Z,60.97
2023-06-18T19:40:04.943Z,57.60
2023-06-18T19:42:34.879Z,59.60
2023-06-18T19:45:05.239Z,68.90
2023-06-18T19:47:35.311Z,63.43
2023-06-18T19:50:07.923Z,56.47
2023-06-18T19:52:37.997Z,59.07
2023-06-18T19:55:09.093Z,66.50
2023-06-18T19:57:38.941Z,57.67
2023-06-18T20:00:09.995Z,64.90
2023-06-18T20:02:42.806Z,52.57
2023-06-18T20:05:14.037Z,58.93
2023-06-18T20:07:43.854Z,71.23
2023-06-18T20:10:13.662Z,76.40
2023-06-18T20:12:44.997Z,71.70
2023-06-18T20:15:16.795Z,66.27
2023-06-18T20:17:48.095Z,67.87
2023-06-18T20:20:21.582Z,62.57
2023-06-18T20:22:52.134Z,63.77
2023-06-18T20:25:22.997Z,62.60
2023-06-18T20:27:53.174Z,60.30
2023-06-18T20:30:23.382Z,63.47
2023-06-18T20:32:53.500Z,74.80
2023-06-18T20:35:24.689Z,91.07
2023-06-18T20:37:54.507Z,80.70
2023-06-18T20:40:24.935Z,68.07
2023-06-18T20:42:56.024Z,69.60
2023-06-18T20:45:25.800Z,60.20
2023-06-18T20:47:55.616Z,60.90
2023-06-18T20:50:26.810Z,64.73
2023-06-18T20:52:56.692Z,79.60
2023-06-18T20:55:26.499Z,69.73
2023-06-18T20:57:58.362Z,76.07
2023-06-18T21:00:28.176Z,74.73
2023-06-18T21:02:58.048Z,71.80
2023-06-18T21:05:29.285Z,74.77
2023-06-18T21:07:59.080Z,79.03
2023-06-18T21:10:29.585Z,82.47
2023-06-18T21:12:59.437Z,70.83
2023-06-18T21:15:29.273Z,93.63
2023-06-18T21:17:59.173Z,90.27
2023-06-18T21:20:30.418Z,92.50
2023-06-18T21:23:00.294Z,82.60
2023-06-18T21:25:30.292Z,68.10
2023-06-18T21:28:00.180Z,68.30
2023-06-18T21:30:30.020Z,64.70
2023-06-18T21:32:59.915Z,65.90
2023-06-18T21:35:31.424Z,63.63
2023-06-18T21:38:01.220Z,66.60
2023-06-18T21:40:31.024Z,70.97
2023-06-18T21:43:01.237Z,71.70
2023-06-18T21:45:31.013Z,74.80
2023-06-18T21:48:00.887Z,82.73
2023-06-18T21:50:32.218Z,78.27
2023-06-18T21:53:01.994Z,71.03
2023-06-18T21:55:31.754Z,64.07
2023-06-18T21:58:01.721Z,72.27
2023-06-18T22:00:31.516Z,72.07
2023-06-18T22:03:01.452Z,78.27
2023-06-18T22:05:34.557Z,70.63
2023-06-18T22:08:19.353Z,81.13
2023-06-18T22:10:53.959Z,73.33
2023-06-18T22:13:23.775Z,70.30
2023-06-18T22:15:53.633Z,74.77
2023-06-18T22:18:23.457Z,66.07
2023-06-18T22:20:54.588Z,80.33
2023-06-18T22:23:24.453Z,84.90
2023-06-18T22:25:57.141Z,83.60
2023-06-18T22:28:27.174Z,74.63
2023-06-18T22:30:56.942Z,70.67
2023-06-18T22:33:28.362Z,77.47
2023-06-18T22:35:59.918Z,73.73
2023-06-18T22:38:30.391Z,80.13
2023-06-18T22:41:00.431Z,87.17
2023-06-18T22:43:30.671Z,86.77
2023-06-18T22:46:01.259Z,82.23
2023-06-18T22:48:34.429Z,80.20
2023-06-18T22:51:05.600Z,74.93
2023-06-18T22:53:35.370Z,76.10
2023-06-18T22:56:05.448Z,89.67
2023-06-18T22:58:35.236Z,81.17
2023-06-18T23:01:10.089Z,81.97
2023-06-18T23:03:40.342Z,70.77
2023-06-18T23:06:12.909Z,77.13
2023-06-18T23:08:42.724Z,81.00
2023-06-18T23:11:12.947Z,76.90
2023-06-18T23:13:43.061Z,76.97
2023-06-18T23:16:13.065Z,84.87
2023-06-18T23:18:42.895Z,102.27
2023-06-18T23:21:14.295Z,90.33
2023-06-18T23:23:44.082Z,96.27
2023-06-18T23:26:13.934Z,108.47
2023-06-18T23:28:49.816Z,90.90
2023-06-18T23:31:20.432Z,86.60
2023-06-18T23:33:50.211Z,91.60
2023-06-18T23:36:21.332Z,86.03
2023-06-18T23:38:51.127Z,88.77
2023-06-18T23:41:21.194Z,80.70
2023-06-18T23:43:51.128Z,83.47
2023-06-18T23:46:21.144Z,99.20
2023-06-18T23:48:51.630Z,105.70
2023-06-18T23:51:25.123Z,94.20
2023-06-18T23:53:55.042Z,93.57
2023-06-18T23:56:25.117Z,99.43
2023-06-18T23:58:55.184Z,88.00
